Time;durP1;ratioP1;P1;durP2;ratioP2;P2;SDS_P1;SDS_P2;PMS_P1;PMS_P2;Temp;Humidity;BMP_temperature;BMP_pressure;BME280_temperature;BME280_humidity;BME280_pressure;Samples;Min_cycle;Max_cycle;Signal;HPM_P1;HPM_P2
2022/02/21 00:02:25;;;;;;;37.90;23.13;;;5.20;82.80;;;;;;6199381;23;20021;-77
2022/02/21 00:04:51;;;;;;;36.70;22.63;;;5.20;82.20;;;;;;6200999;23;20025;-77
2022/02/21 00:07:18;;;;;;;;;;;5.20;82.20;;;;;;6204196;23;20048;-79
2022/02/21 00:09:45;;;;;;;;;;;5.20;82.80;;;;;;6195892;23;19924;-78
2022/02/21 00:12:12;;;;;;;;;;;5.20;82.60;;;;;;6186333;23;19900;-78
2022/02/21 00:14:38;;;;;;;;;;;5.10;82.70;;;;;;6166580;23;20345;-78
2022/02/21 00:17:05;;;;;;;;;;;5.10;82.60;;;;;;6176430;23;19900;-77
2022/02/21 00:19:33;;;;;;;;;;;5.10;82.40;;;;;;6207073;23;19920;-77
2022/02/21 00:22:00;;;;;;;;;;;5.10;83.60;;;;;;6177467;23;19923;-77
2022/02/21 00:24:26;;;;;;;;;;;5.10;83.30;;;;;;6192809;23;19916;-79
2022/02/21 00:26:53;;;;;;;;;;;5.10;82.80;;;;;;6193312;23;20321;-76
2022/02/21 00:29:20;;;;;;;;;;;5.10;83.40;;;;;;6170133;23;19967;-77
2022/02/21 00:31:47;;;;;;;;;;;5.00;83.40;;;;;;6196219;23;19924;-78
2022/02/21 00:34:14;;;;;;;;;;;4.90;84.00;;;;;;6196958;23;19923;-78
2022/02/21 00:36:40;;;;;;;;;;;4.90;83.10;;;;;;6176747;23;19920;-77
2022/02/21 00:39:07;;;;;;;;;;;4.90;83.40;;;;;;6171251;23;19916;-78
2022/02/21 00:41:34;;;;;;;;;;;4.90;84.00;;;;;;6189363;23;19900;-77
2022/02/21 00:44:01;;;;;;;;;;;4.90;84.00;;;;;;6164777;23;20000;-78
2022/02/21 00:46:27;;;;;;;;;;;4.80;84.20;;;;;;6173633;23;19954;-77
2022/02/21 00:48:54;;;;;;;;;;;4.80;83.90;;;;;;6173630;23;19920;-78
2022/02/21 00:51:21;;;;;;;;;;;4.80;83.70;;;;;;6195606;23;19974;-77
2022/02/21 00:53:48;;;;;;;;;;;4.90;84.10;;;;;;6193721;23;19916;-78
2022/02/21 00:56:14;;;;;;;;;;;4.90;83.70;;;;;;6171880;23;20245;-77
2022/02/21 00:58:41;;;;;;;;;;;4.90;85.80;;;;;;6186613;23;19920;-77
2022/02/21 01:01:08;;;;;;;;;;;4.90;84.40;;;;;;6198378;23;19923;-74
2022/02/21 01:03:35;;;;;;;;;;;4.90;83.80;;;;;;6194997;23;19916;-74
2022/02/21 01:06:02;;;;;;;;;;;4.90;84.20;;;;;;6162318;23;19916;-75
2022/02/21 01:08:28;;;;;;;;;;;4.80;84.60;;;;;;6160047;23;19916;-74
2022/02/21 01:10:55;;;;;;;;;;;4.70;86.40;;;;;;6162488;23;20019;-76
2022/02/21 01:13:22;;;;;;;;;;;4.70;85.50;;;;;;6160494;23;19967;-74
2022/02/21 01:15:49;;;;;;;;;;;4.70;86.40;;;;;;6163462;23;19917;-74
2022/02/21 01:18:16;;;;;;;;;;;4.70;86.30;;;;;;6163034;23;19920;-74
2022/02/21 01:20:42;;;;;;;;;;;4.80;86.00;;;;;;6158717;23;19917;-75
2022/02/21 01:23:09;;;;;;;;;;;4.80;85.50;;;;;;6163165;23;19923;-75
2022/02/21 01:25:36;;;;;;;;;;;4.80;85.60;;;;;;6166066;23;20334;-75
2022/02/21 01:28:03;;;;;;;;;;;4.80;85.80;;;;;;6164184;23;19916;-77
2022/02/21 01:30:30;;;;;;;;;;;4.80;86.00;;;;;;6164745;23;19944;-77
2022/02/21 01:32:56;;;;;;;;;;;4.80;86.10;;;;;;6158430;23;19916;-75
2022/02/21 01:35:24;;;;;;;;;;;4.70;86.40;;;;;;6159093;23;19920;-76
2022/02/21 01:37:51;;;;;;;;;;;4.80;87.30;;;;;;6163052;23;19975;-75
2022/02/21 01:40:20;;;;;;;;;;;4.80;86.70;;;;;;6168458;23;19924;-75
2022/02/21 01:42:47;;;;;;;;;;;4.80;86.90;;;;;;6169241;23;19916;-76
2022/02/21 01:45:14;;;;;;;;;;;4.80;86.50;;;;;;6164723;23;19917;-75
2022/02/21 01:47:41;;;;;;;;;;;4.80;86.20;;;;;;6164503;23;20330;-77
2022/02/21 01:50:08;;;;;;;;;;;4.70;85.80;;;;;;6159176;23;19985;-76
2022/02/21 01:52:34;;;;;;;;;;;4.70;85.80;;;;;;6164953;23;19916;-75
2022/02/21 01:55:03;;;;;;;;;;;4.70;85.50;;;;;;6168113;23;19920;-75
2022/02/21 01:57:30;;;;;;;;;;;4.70;85.50;;;;;;6164570;23;19920;-75
2022/02/21 01:59:57;;;;;;;;;;;4.70;85.50;;;;;;6173170;23;19916;-76
2022/02/21 02:02:23;;;;;;;;;;;4.60;85.40;;;;;;6162499;23;19916;-75
2022/02/21 02:04:50;;;;;;;;;;;4.60;85.60;;;;;;6171640;23;19940;-75
2022/02/21 02:07:17;;;;;;;;;;;4.60;86.30;;;;;;6191880;23;19979;-77
2022/02/21 02:09:44;;;;;;;;;;;4.50;85.90;;;;;;6189110;23;19916;-76
2022/02/21 02:12:11;;;;;;;;;;;4.50;85.90;;;;;;6190954;23;19920;-75
2022/02/21 02:14:41;;;;;;;;;;;4.60;85.80;;;;;;6192593;23;19916;-77
2022/02/21 02:17:09;;;;;;;;;;;4.60;86.20;;;;;;6194455;23;19916;-76
2022/02/21 02:19:36;;;;;;;;;;;4.60;87.40;;;;;;6198765;23;19920;-77
2022/02/21 02:22:22;;;;;;;;;;;4.60;86.10;;;;;;6192723;23;19916;-76
2022/02/21 02:24:50;;;;;;;;;;;4.60;86.90;;;;;;6169468;23;19948;-75
2022/02/21 02:27:17;;;;;;;;;;;4.50;86.50;;;;;;6169818;23;20239;-75
2022/02/21 02:29:45;;;;;;;;;;;4.30;86.30;;;;;;6165614;23;19928;-75
2022/02/21 02:32:12;;;;;;;;;;;4.30;86.30;;;;;;6190674;23;19916;-77
2022/02/21 02:34:43;;;;;;;;;;;4.30;86.10;;;;;;6197856;23;19920;-75
2022/02/21 02:37:10;;;;;;;;;;;4.30;86.50;;;;;;6189759;23;19916;-76
2022/02/21 02:39:37;;;;;;;;;;;4.20;87.40;;;;;;6162530;23;19924;-77
2022/02/21 02:42:06;;;;;;;;;;;4.30;88.50;;;;;;6170714;23;19962;-76
2022/02/21 02:44:33;;;;;;;;;;;4.30;89.10;;;;;;6191524;23;19923;-75
2022/02/21 02:47:00;;;;;;;;;;;4.30;88.10;;;;;;6193733;23;19923;-75
2022/02/21 02:49:26;;;;;;;;;;;4.30;87.90;;;;;;6170131;23;19923;-77
2022/02/21 02:51:53;;;;;;;;;;;4.30;88.20;;;;;;6193920;23;19923;-76
2022/02/21 02:54:20;;;;;;;;;;;4.30;89.50;;;;;;6172513;23;19951;-75
2022/02/21 02:56:47;;;;;;;;;;;4.30;88.80;;;;;;6171942;23;19916;-77
2022/02/21 02:59:14;;;;;;;;;;;4.30;88.30;;;;;;6172623;23;19923;-75
2022/02/21 03:01:41;;;;;;;;;;;4.30;87.90;;;;;;6187552;23;19923;-77
2022/02/21 03:04:08;;;;;;;;;;;4.20;87.90;;;;;;6166329;23;19947;-76
2022/02/21 03:06:35;;;;;;;;;;;4.20;87.90;;;;;;6191392;23;19963;-75
2022/02/21 03:09:03;;;;;;;;;;;4.10;87.60;;;;;;6193407;23;19939;-77
2022/02/21 03:11:29;;;;;;;;;;;4.10;87.50;;;;;;6188888;23;19916;-76
2022/02/21 03:13:58;;;;;;;;;;;4.10;87.40;;;;;;6196969;23;19923;-75
2022/02/21 03:16:26;;;;;;;;;;;4.10;87.60;;;;;;6163877;23;19920;-76
2022/02/21 03:18:53;;;;;;;;;;;4.00;87.70;;;;;;6191604;23;19967;-76
2022/02/21 03:21:20;;;;;;;;;;;3.90;87.00;;;;;;6169261;23;19920;-75
2022/02/21 03:23:47;;;;;;;;;;;3.70;86.50;;;;;;6160660;23;19916;-75
2022/02/21 03:26:14;;;;;;;;;;;3.60;87.20;;;;;;6172675;23;19916;-75
2022/02/21 03:28:40;;;;;;;;;;;3.60;87.60;;;;;;6188393;23;20360;-75
2022/02/21 03:31:08;;;;;;;;;;;3.50;90.20;;;;;;6169156;23;20288;-76
2022/02/21 03:33:35;;;;;;;;;;;3.50;90.00;;;;;;6169824;23;19975;-76
2022/02/21 03:36:02;;;;;;;;;;;3.50;89.40;;;;;;6198169;23;19916;-75
2022/02/21 03:38:29;;;;;;;;;;;3.50;88.70;;;;;;6189392;23;19920;-76
2022/02/21 03:40:55;;;;;;;;;;;3.50;88.40;;;;;;6183723;23;19920;-77
2022/02/21 03:43:22;;;;;;;;;;;3.50;88.50;;;;;;6191850;23;19923;-75
2022/02/21 03:45:49;;;;;;;;;;;3.50;88.90;;;;;;6186496;23;19916;-75
2022/02/21 03:48:16;;;;;;;;;;;3.40;88.40;;;;;;6165905;23;19920;-76
2022/02/21 03:50:43;;;;;;;;;;;3.40;88.30;;;;;;6194069;23;19940;-75
2022/02/21 03:53:10;;;;;;;;;;;3.40;89.50;;;;;;6166912;23;19920;-77
2022/02/21 03:55:37;;;;;;;;;;;3.40;89.20;;;;;;6199267;23;19916;-75
2022/02/21 03:58:04;;;;;;;;;;;3.50;88.70;;;;;;6166668;23;19916;-75
2022/02/21 04:00:31;;;;;;;;;;;3.50;88.10;;;;;;6196708;23;19924;-75
2022/02/21 04:02:58;;;;;;;;;;;3.40;88.70;;;;;;6191005;23;19935;-75
2022/02/21 04:05:24;;;;;;;;;;;3.30;86.50;;;;;;6169039;23;19920;-75
2022/02/21 04:07:51;;;;;;;;;;;3.10;86.40;;;;;;6189822;23;20325;-74
2022/02/21 04:10:21;;;;;;;;;;;3.10;86.20;;;;;;6191321;23;19916;-75
2022/02/21 04:12:47;;;;;;;;;;;3.00;86.40;;;;;;6169860;23;19938;-74
2022/02/21 04:15:14;;;;;;;;;;;2.90;86.70;;;;;;6188107;23;20270;-76
2022/02/21 04:17:47;;;;;;;;;;;2.80;87.30;;;;;;6196398;23;19956;-75
2022/02/21 04:20:16;;;;;;;;;;;2.80;87.90;;;;;;6188436;23;19917;-76
2022/02/21 04:22:43;;;;;;;;;;;2.80;88.60;;;;;;6189531;23;19916;-77
2022/02/21 04:25:11;;;;;;;;;;;2.80;89.00;;;;;;6170370;23;19924;-75
2022/02/21 04:27:45;;;;;;;;;;;2.70;88.50;;;;;;6176429;23;19939;-75
2022/02/21 04:30:13;;;;;;;;;;;2.70;89.00;;;;;;6164561;23;19916;-76
2022/02/21 04:32:40;;;;;;;;;;;2.70;90.00;;;;;;6190145;23;19916;-77
2022/02/21 04:35:07;;;;;;;;;;;2.80;90.40;;;;;;6164486;23;19916;-76
2022/02/21 04:37:35;;;;;;;;;;;2.80;90.10;;;;;;6190759;23;19971;-77
2022/02/21 04:40:02;;;;;;;;;;;2.70;89.70;;;;;;6196745;23;19916;-75
2022/02/21 04:42:29;;;;;;;;;;;2.70;89.90;;;;;;6170324;23;19962;-75
2022/02/21 04:44:56;;;;;;;;;;;2.70;89.50;;;;;;6186818;23;19923;-77
2022/02/21 04:47:23;;;;;;;;;;;2.70;89.50;;;;;;6190989;23;20392;-76
2022/02/21 04:49:49;;;;;;;;;;;2.70;89.30;;;;;;6192855;23;19916;-75
2022/02/21 04:52:17;;;;;;;;;;;2.60;89.20;;;;;;6192206;23;19924;-76
2022/02/21 04:54:44;;;;;;;;;;;2.60;88.80;;;;;;6167083;23;19900;-75
2022/02/21 04:57:10;;;;;;;;;;;2.60;88.90;;;;;;6170168;23;19920;-75
2022/02/21 04:59:37;;;;;;;;;;;2.50;89.50;;;;;;6168726;23;19924;-76
2022/02/21 05:02:04;;;;;;;;;;;2.50;89.50;;;;;;6191044;23;19916;-76
2022/02/21 05:04:31;;;;;;;;;;;2.50;89.60;;;;;;6174386;23;19930;-75
2022/02/21 05:06:58;;;;;;;;;;;2.40;90.30;;;;;;6171889;23;19956;-75
2022/02/21 05:09:25;;;;;;;;;;;2.40;90.00;;;;;;6173673;23;19920;-75
2022/02/21 05:11:51;;;;;;;;;;;2.40;89.00;;;;;;6192293;23;19920;-77
2022/02/21 05:14:18;;;;;;;;;;;2.30;88.90;;;;;;6192159;23;19924;-76
2022/02/21 05:16:45;;;;;;;;;;;2.20;88.50;;;;;;6192366;23;19920;-76
2022/02/21 05:19:12;;;;;;;;;;;2.20;88.00;;;;;;6195736;23;19923;-76
2022/02/21 05:21:39;;;;;;;;;;;2.10;88.30;;;;;;6167855;23;20380;-76
2022/02/21 05:24:06;;;;;;;;;;;2.00;88.20;;;;;;6168787;23;19916;-75
2022/02/21 05:26:33;;;;;;;;;;;1.90;90.20;;;;;;6194060;23;19923;-76
2022/02/21 05:29:00;;;;;;;;;;;2.00;90.40;;;;;;6195007;23;19920;-76
2022/02/21 05:31:27;;;;;;;;;;;2.00;90.30;;;;;;6171255;23;19916;-75
2022/02/21 05:33:54;;;;;;;;;;;2.00;90.50;;;;;;6192436;23;20404;-75
2022/02/21 05:36:21;;;;;;;;;;;2.10;90.30;;;;;;6192569;23;19924;-75
2022/02/21 05:38:47;;;;;;;;;;;2.00;90.20;;;;;;6167233;23;19916;-75
2022/02/21 05:41:14;;;;;;;;;;;1.90;87.90;;;;;;6194076;23;19923;-75
2022/02/21 05:43:41;;;;;;;;;;;1.70;87.90;;;;;;6170709;23;20412;-75
2022/02/21 05:46:08;;;;;;;;;;;1.70;88.60;;;;;;6171450;23;19947;-75
2022/02/21 05:48:35;;;;;;;;;;;1.70;89.00;;;;;;6165523;23;20321;-75
2022/02/21 05:51:01;;;;;;;;;;;1.60;89.50;;;;;;6170880;23;19920;-75
2022/02/21 05:53:28;;;;;;;;;;;1.60;89.10;;;;;;6169305;23;19916;-76
2022/02/21 05:55:55;;;;;;;;;;;1.60;89.40;;;;;;6193586;23;19920;-74
2022/02/21 05:58:22;;;;;;;;;;;1.60;89.10;;;;;;6185722;23;19920;-75
2022/02/21 06:00:49;;;;;;;;;;;1.60;89.00;;;;;;6189547;23;19916;-74
2022/02/21 06:03:16;;;;;;;;;;;1.60;90.00;;;;;;6190614;23;19978;-76
2022/02/21 06:05:46;;;;;;;;;;;1.60;90.30;;;;;;6159815;23;19997;-75
2022/02/21 06:08:13;;;;;;;;;;;1.70;90.10;;;;;;6166344;23;19916;-76
2022/02/21 06:10:40;;;;;;;;;;;1.70;90.40;;;;;;6164669;23;19916;-75
2022/02/21 06:13:06;;;;;;;;;;;1.50;89.20;;;;;;6187652;23;20478;-74
2022/02/21 06:15:33;;;;;;;;;;;1.50;89.50;;;;;;6189917;23;20045;-75
2022/02/21 06:18:00;;;;;;;;;;;1.50;89.90;;;;;;6166659;23;19920;-74
2022/02/21 06:20:27;;;;;;;;;;;1.50;90.40;;;;;;6186259;23;19943;-76
2022/02/21 06:22:54;;;;;;;;;;;1.50;90.40;;;;;;6162536;23;19982;-75
2022/02/21 06:25:22;;;;;;;;;;;1.50;90.50;;;;;;6191121;23;19920;-76
2022/02/21 06:27:49;;;;;;;;;;;1.50;91.00;;;;;;6159300;23;19916;-75
2022/02/21 06:30:15;;;;;;;;;;;1.40;90.20;;;;;;6187854;23;20333;-76
2022/02/21 06:32:42;;;;;;;;;;;1.10;90.30;;;;;;6189498;23;19920;-75
2022/02/21 06:35:11;;;;;;;;;;;1.10;91.00;;;;;;6189456;23;19916;-75
2022/02/21 06:37:41;;;;;;;;;;;1.20;91.00;;;;;;6185981;23;20321;-76
2022/02/21 06:40:08;;;;;;;;;;;1.20;90.90;;;;;;6189231;23;19916;-76
2022/02/21 06:42:36;;;;;;;;;;;1.30;91.70;;;;;;6162540;23;19943;-75
2022/02/21 06:45:03;;;;;;;;;;;1.40;92.50;;;;;;6164658;23;19916;-75
2022/02/21 06:47:30;;;;;;;;;;;1.60;93.00;;;;;;6169293;23;19920;-76
2022/02/21 06:49:57;;;;;;;;;;;1.80;93.00;;;;;;6160519;23;19916;-76
2022/02/21 06:52:23;;;;;;;;;;;1.80;92.60;;;;;;6192167;23;20226;-74
2022/02/21 06:54:52;;;;;;;;;;;2.00;93.20;;;;;;6188118;23;19939;-76
2022/02/21 06:57:22;;;;;;;;;;;2.00;92.80;;;;;;6189371;23;19920;-76
2022/02/21 06:59:48;;;;;;;;;;;2.00;92.40;;;;;;6167316;23;19923;-75
2022/02/21 07:02:16;;;;;;;;;;;2.00;92.00;;;;;;6165761;23;19916;-74
2022/02/21 07:04:43;;;;;;;;;;;2.00;91.60;;;;;;6185697;23;19983;-75
2022/02/21 07:07:10;;;;;;;;;;;1.90;91.20;;;;;;6155993;23;19971;-76
2022/02/21 07:09:36;;;;;;;;;;;1.80;90.80;;;;;;6159098;23;19916;-76
2022/02/21 07:12:04;;;;;;;;;;;1.80;91.10;;;;;;6155566;23;19917;-76
2022/02/21 07:14:30;;;;;;;;;;;1.80;91.20;;;;;;6163822;23;20305;-75
2022/02/21 07:16:57;;;;;;;;;;;1.80;91.80;;;;;;6157204;23;19917;-75
2022/02/21 07:19:24;;;;;;;;;;;1.80;91.90;;;;;;6162937;23;19924;-75
2022/02/21 07:21:51;;;;;;;;;;;1.80;91.90;;;;;;6162458;23;20338;-76
2022/02/21 07:24:17;;;;;;;;;;;1.90;92.00;;;;;;6160902;23;19920;-76
2022/02/21 07:26:44;;;;;;;;;;;1.90;91.90;;;;;;6156346;23;19916;-76
2022/02/21 07:29:11;;;;;;;;;;;2.00;91.80;;;;;;6155818;23;20302;-76
2022/02/21 07:31:38;;;;;;;;;;;2.10;91.80;;;;;;6163612;23;20334;-76
2022/02/21 07:34:04;;;;;;;;;;;2.20;91.90;;;;;;6157684;23;20227;-74
2022/02/21 07:36:31;;;;;;;;;;;2.30;91.90;;;;;;6156621;23;19917;-76
2022/02/21 07:38:58;;;;;;;;;;;2.50;91.90;;;;;;6163928;23;19917;-76
2022/02/21 07:41:25;;;;;;;;;;;2.70;91.90;;;;;;6160550;23;20493;-76
2022/02/21 07:43:51;;;;;;;;;;;3.00;91.80;;;;;;6160434;23;19940;-75
2022/02/21 07:46:18;;;;;;;;;;;3.30;91.70;;;;;;6159864;23;20237;-75
2022/02/21 07:48:45;;;;;;;;;;;3.50;91.50;;;;;;6160362;23;19920;-76
2022/02/21 07:51:12;;;;;;;;;;;3.80;91.50;;;;;;6159451;23;19916;-76
2022/02/21 07:53:39;;;;;;;;;;;4.00;91.70;;;;;;6159364;23;20394;-76
2022/02/21 07:56:06;;;;;;;;;;;4.20;91.20;;;;;;6162773;23;19921;-76
2022/02/21 07:58:33;;;;;;;;;;;4.40;91.10;;;;;;6160325;23;19916;-77
2022/02/21 08:00:59;;;;;;;;;;;4.60;90.60;;;;;;6161710;23;19975;-76
2022/02/21 08:03:26;;;;;;;;;;;4.80;90.30;;;;;;6161460;23;19924;-75
2022/02/21 08:05:57;;;;;;;;;;;4.90;90.60;;;;;;6190015;23;19916;-76
2022/02/21 08:08:25;;;;;;;;;;;4.90;90.20;;;;;;6169685;23;19920;-74
2022/02/21 08:10:52;;;;;;;;;;;5.00;90.10;;;;;;6167087;23;20016;-75
2022/02/21 08:13:18;;;;;;;;;;;5.20;90.30;;;;;;6193100;23;19923;-76
2022/02/21 08:15:45;;;;;;;;;;;5.50;89.50;;;;;;6168335;23;19916;-76
2022/02/21 08:18:12;;;;;;;;;;;5.70;89.30;;;;;;6194759;23;20334;-76
2022/02/21 08:20:39;;;;;;;;;;;5.90;88.60;;;;;;6194176;23;19916;-74
2022/02/21 08:23:05;;;;;;;;;;;6.20;87.80;;;;;;6165811;23;19979;-75
2022/02/21 08:25:32;;;;;;;;;;;6.40;85.80;;;;;;6168549;23;20333;-75
2022/02/21 08:27:59;;;;;;;;;;;6.60;85.10;;;;;;6191701;23;19916;-75
2022/02/21 08:30:26;;;;;;;;;;;6.80;85.30;;;;;;6187272;23;19916;-77
2022/02/21 08:32:53;;;;;;;;;;;7.10;84.30;;;;;;6190846;23;19916;-75
2022/02/21 08:35:20;;;;;;;;;;;7.30;83.70;;;;;;6191431;23;20293;-76
2022/02/21 08:37:47;;;;;;;;;;;7.60;84.60;;;;;;6194489;23;19916;-76
2022/02/21 08:40:15;;;;;;;;;;;7.90;82.20;;;;;;6161726;23;19963;-76
2022/02/21 08:42:43;;;;;;;;;;;8.10;81.40;;;;;;6198355;23;19916;-76
2022/02/21 08:45:10;;;;;;;;;;;8.40;80.40;;;;;;6170021;23;20296;-77
2022/02/21 08:47:37;;;;;;;;;;;8.70;79.80;;;;;;6166652;23;20253;-77
2022/02/21 08:50:05;;;;;;;;;;;8.90;79.00;;;;;;6172004;23;19920;-74
2022/02/21 08:52:32;;;;;;;;;;;9.10;77.90;;;;;;6202435;23;20349;-76
2022/02/21 08:54:59;;;;;;;;;;;9.20;77.50;;;;;;6196914;23;19916;-74
2022/02/21 08:57:27;;;;;;;;;;;9.30;76.20;;;;;;6195183;23;19928;-77
2022/02/21 08:59:54;;;;;;;;;;;9.50;76.30;;;;;;6197201;23;20015;-74
2022/02/21 09:02:21;;;;;;;;;;;9.70;75.00;;;;;;6196491;23;20325;-76
2022/02/21 09:05:08;;;;;;;;;;;9.80;74.60;;;;;;6169814;23;19924;-76
2022/02/21 09:07:35;;;;;;;;;;;9.90;73.80;;;;;;6174887;23;19951;-74
2022/02/21 09:10:01;;;;;;;;;;;10.00;74.30;;;;;;6173972;23;20326;-75
2022/02/21 09:12:28;;;;;;;;;;;10.30;74.90;;;;;;6194968;23;19963;-74
2022/02/21 09:14:56;;;;;;;;;;;10.50;71.90;;;;;;6196724;23;20238;-76
2022/02/21 09:17:26;;;;;;;;;;;10.70;72.30;;;;;;6168979;23;19917;-75
2022/02/21 09:19:53;;;;;;;;;;;10.70;71.00;;;;;;6190526;23;19922;-77
2022/02/21 09:22:21;;;;;;;;;;;10.70;71.40;;;;;;6194343;23;20309;-76
2022/02/21 09:24:49;;;;;;;;;;;10.70;71.80;;;;;;6194055;23;19900;-76
2022/02/21 09:27:19;;;;;;;;;;;10.70;71.20;;;;;;6196234;23;19923;-78
2022/02/21 09:29:47;;;;;;;;;;;10.60;71.80;;;;;;6169108;23;19916;-75
2022/02/21 09:32:17;;;;;;;;;;;10.40;71.40;;;;;;6171004;23;20321;-76
2022/02/21 09:34:44;;;;;;;;;;;10.30;72.30;;;;;;6194213;23;19920;-76
2022/02/21 09:37:14;;;;;;;;;;;10.20;72.90;;;;;;6194425;23;19939;-76
2022/02/21 09:39:44;;;;;;;;;;;10.20;73.80;;;;;;6166391;23;20341;-76
2022/02/21 09:42:11;;;;;;;;;;;10.20;73.20;;;;;;6189978;23;20337;-77
2022/02/21 09:44:43;;;;;;;;;;;10.20;73.60;;;;;;6164738;23;19916;-76
2022/02/21 09:47:13;;;;;;;;;;;10.20;73.60;;;;;;6168362;23;20389;-75
2022/02/21 09:49:40;;;;;;;;;;;10.20;73.70;;;;;;6166235;23;19920;-76
2022/02/21 09:52:07;;;;;;;39.80;25.55;;;10.20;73.90;;;;;;6167436;23;19916;-77
2022/02/21 09:54:34;;;;;;;37.75;25.63;;;10.10;73.80;;;;;;6192307;23;20129;-77
2022/02/21 09:57:01;;;;;;;42.00;26.48;;;10.00;74.00;;;;;;6194451;23;20052;-75
2022/02/21 09:59:28;;;;;;;38.72;24.73;;;10.00;74.40;;;;;;6188070;23;20351;-77
2022/02/21 10:01:55;;;;;;;35.80;22.52;;;9.90;75.00;;;;;;6188730;23;20116;-75
2022/02/21 10:04:24;;;;;;;37.53;22.88;;;10.00;75.40;;;;;;6183799;23;20022;-76
2022/02/21 10:06:52;;;;;;;33.83;22.20;;;10.00;75.00;;;;;;6164008;23;20068;-75
2022/02/21 10:09:24;;;;;;;29.70;19.98;;;10.10;75.20;;;;;;6161972;23;20014;-75
2022/02/21 10:11:54;;;;;;;35.45;22.17;;;10.40;76.00;;;;;;6162507;23;20612;-77
2022/02/21 10:14:28;;;;;;;34.08;24.50;;;10.70;76.60;;;;;;6184446;23;20365;-77
2022/02/21 10:17:00;;;;;;;33.30;24.02;;;11.10;74.20;;;;;;6161104;23;20757;-76
2022/02/21 10:19:30;;;;;;;;;;;11.60;72.60;;;;;;6159252;23;20025;-77
2022/02/21 10:22:11;;;;;;;33.47;19.88;;;12.00;69.20;;;;;;6156820;23;19941;-77
2022/02/21 10:24:42;;;;;;;30.25;21.15;;;12.30;69.20;;;;;;6164092;23;20021;-76
2022/02/21 10:27:16;;;;;;;;;;;12.50;67.70;;;;;;6160928;23;20027;-75
2022/02/21 10:29:50;;;;;;;;;;;12.70;66.40;;;;;;6159050;23;19990;-79
2022/02/21 10:32:19;;;;;;;;;;;13.00;64.40;;;;;;6165470;23;19943;-76
2022/02/21 10:34:49;;;;;;;11.98;0.80;;;13.40;56.30;;;;;;6164352;23;19916;-76
2022/02/21 10:37:23;;;;;;;4.75;0.10;;;13.80;42.40;;;;;;6159414;23;20417;-78
2022/02/21 10:40:06;;;;;;;2.35;0.10;;;13.80;41.90;;;;;;6184566;23;20382;-76
2022/02/21 10:42:41;;;;;;;2.05;0.10;;;13.60;38.90;;;;;;6155970;23;20366;-77
2022/02/21 10:45:17;;;;;;;0.40;0.00;;;13.70;38.40;;;;;;6160315;23;20358;-76
2022/02/21 10:48:23;;;;;;;0.90;0.10;;;13.90;38.00;;;;;;6156428;23;20365;-78
2022/02/21 10:50:57;;;;;;;;;;;13.90;37.80;;;;;;6186214;23;20025;-76
2022/02/21 10:53:40;;;;;;;1.13;0.00;;;13.90;34.60;;;;;;6160764;23;19961;-77
2022/02/21 10:56:09;;;;;;;0.00;0.00;;;14.00;34.30;;;;;;6189637;23;20049;-76
2022/02/21 10:58:36;;;;;;;;;;;14.10;34.90;;;;;;6165611;23;20068;-75
2022/02/21 11:01:07;;;;;;;0.30;0.00;;;14.30;34.40;;;;;;6158471;23;20270;-78
2022/02/21 11:03:41;;;;;;;1.20;0.00;;;14.50;33.90;;;;;;6180667;23;20096;-75
2022/02/21 11:06:10;;;;;;;0.10;0.08;;;14.60;32.00;;;;;;6164753;23;20053;-78
2022/02/21 11:08:39;;;;;;;0.00;0.00;;;14.80;31.40;;;;;;6160024;23;20021;-76
2022/02/21 11:11:09;;;;;;;0.00;0.00;;;14.80;29.60;;;;;;6161360;23;20048;-78
2022/02/21 11:13:37;;;;;;;0.32;0.05;;;14.80;28.80;;;;;;6168374;23;20073;-77
2022/02/21 11:16:05;;;;;;;0.10;0.00;;;14.80;29.30;;;;;;6160938;23;20021;-77
2022/02/21 11:18:34;;;;;;;0.10;0.00;;;15.10;29.30;;;;;;6162109;23;20412;-75
2022/02/21 11:21:02;;;;;;;0.17;0.00;;;15.30;29.60;;;;;;6162628;23;20013;-77
2022/02/21 11:23:31;;;;;;;0.90;0.10;;;15.40;29.50;;;;;;6190906;23;20025;-76
2022/02/21 11:25:59;;;;;;;;;;;15.60;30.90;;;;;;6165909;23;20021;-79
2022/02/21 11:28:36;;;;;;;;;;;15.70;30.30;;;;;;6162354;23;19917;-78
2022/02/21 11:31:04;;;;;;;;;;;15.90;29.60;;;;;;6163724;23;20381;-78
2022/02/21 11:33:31;;;;;;;;;;;16.10;28.10;;;;;;6169020;23;19920;-77
2022/02/21 11:36:12;;;;;;;;;;;16.20;26.90;;;;;;6161149;23;19987;-76
2022/02/21 11:38:41;;;;;;;;;;;16.30;27.00;;;;;;6165741;23;19920;-77
2022/02/21 11:41:15;;;;;;;;;;;16.40;26.20;;;;;;6135198;23;20334;-75
2022/02/21 11:43:45;;;;;;;;;;;16.50;26.00;;;;;;6183255;23;19924;-76
2022/02/21 11:46:12;;;;;;;;;;;16.60;24.70;;;;;;6161717;23;19941;-74
2022/02/21 11:48:55;;;;;;;;;;;16.70;24.90;;;;;;6162951;23;20258;-77
2022/02/21 11:51:39;;;;;;;;;;;16.80;25.00;;;;;;6161768;23;19967;-74
2022/02/21 11:54:11;;;;;;;;;;;17.00;25.30;;;;;;6159463;23;19929;-75
2022/02/21 11:56:47;;;;;;;;;;;17.10;24.00;;;;;;6164133;23;19920;-76
2022/02/21 11:59:20;;;;;;;;;;;17.00;23.10;;;;;;6163552;23;19916;-77
2022/02/21 12:01:48;;;;;;;;;;;17.10;24.40;;;;;;6162060;23;20337;-75
2022/02/21 12:04:16;;;;;;;;;;;17.20;23.70;;;;;;6162198;23;19916;-75
2022/02/21 12:06:53;;;;;;;;;;;17.30;23.90;;;;;;6162923;23;19917;-75
2022/02/21 12:09:20;;;;;;;;;;;17.30;23.70;;;;;;6158316;23;20289;-75
2022/02/21 12:11:47;;;;;;;;;;;17.20;23.40;;;;;;6165193;23;19923;-75
2022/02/21 12:14:15;;;;;;;;;;;17.20;24.00;;;;;;6161978;23;20231;-78
2022/02/21 12:16:57;;;;;;;;;;;17.20;24.10;;;;;;6163222;23;19920;-78
2022/02/21 12:19:28;;;;;;;;;;;17.20;24.10;;;;;;6166360;23;19917;-78
2022/02/21 12:22:05;;;;;;;;;;;17.20;24.70;;;;;;6159972;23;19926;-75
2022/02/21 12:24:32;;;;;;;;;;;17.30;24.00;;;;;;6156528;23;19963;-77
2022/02/21 12:27:11;;;;;;;;;;;17.30;23.50;;;;;;6166601;23;19917;-77
2022/02/21 12:29:41;;;;;;;;;;;17.30;24.00;;;;;;6164726;23;20388;-77
2022/02/21 12:32:11;;;;;;;;;;;17.20;24.50;;;;;;6162760;23;19916;-78
2022/02/21 12:34:38;;;;;;;;;;;17.20;24.50;;;;;;6155187;23;19921;-77
2022/02/21 12:37:05;;;;;;;;;;;17.20;24.10;;;;;;6159747;23;19975;-77
2022/02/21 12:39:33;;;;;;;;;;;17.10;24.30;;;;;;6160803;23;19917;-75
2022/02/21 12:42:00;;;;;;;;;;;17.00;25.30;;;;;;6162589;23;20400;-77
2022/02/21 12:44:27;;;;;;;;;;;17.00;24.70;;;;;;6161717;23;19939;-77
2022/02/21 12:46:56;;;;;;;;;;;16.80;25.20;;;;;;6164428;23;19971;-77
2022/02/21 12:49:29;;;;;;;;;;;16.70;24.70;;;;;;6155405;23;20239;-78
2022/02/21 12:51:58;;;;;;;;;;;16.50;25.60;;;;;;6159864;23;19956;-75
2022/02/21 12:54:25;;;;;;;0.10;0.00;;;16.50;25.90;;;;;;6161354;23;19917;-74
2022/02/21 12:57:00;;;;;;;3.60;0.10;;;16.40;26.10;;;;;;6154129;23;20017;-78
2022/02/21 12:59:28;;;;;;;;;;;16.40;25.30;;;;;;6159502;23;20021;-76
2022/02/21 13:01:57;;;;;;;;;;;16.40;26.40;;;;;;6160180;23;19995;-76
2022/02/21 13:04:24;;;;;;;;;;;16.40;26.00;;;;;;6158173;23;19921;-77
2022/02/21 13:06:51;;;;;;;;;;;16.40;25.70;;;;;;6160630;23;19943;-74
2022/02/21 13:09:18;;;;;;;;;;;16.40;25.80;;;;;;6156614;23;19920;-76
2022/02/21 13:11:45;;;;;;;;;;;16.40;26.40;;;;;;6162002;23;19921;-75
2022/02/21 13:14:28;;;;;;;;;;;16.40;26.10;;;;;;6155344;23;19916;-78
2022/02/21 13:17:01;;;;;;;0.60;0.00;;;16.40;25.70;;;;;;6184319;23;19916;-76
2022/02/21 13:19:29;;;;;;;;;;;16.30;25.90;;;;;;6161092;23;20021;-74
2022/02/21 13:21:57;;;;;;;;;;;16.20;25.10;;;;;;6158867;23;19931;-76
2022/02/21 13:24:24;;;;;;;;;;;16.10;24.90;;;;;;6156080;23;19963;-76
2022/02/21 13:26:51;;;;;;;;;;;15.90;25.70;;;;;;6160250;23;19924;-76
2022/02/21 13:29:21;;;;;;;;;;;16.00;24.80;;;;;;6159788;23;20258;-76
2022/02/21 13:31:49;;;;;;;;;;;16.00;24.80;;;;;;6155351;23;20297;-76
2022/02/21 13:34:16;;;;;;;;;;;15.90;25.40;;;;;;6157109;23;19924;-77
2022/02/21 13:36:44;;;;;;;;;;;16.00;24.70;;;;;;6155465;23;19921;-74
2022/02/21 13:39:19;;;;;;;;;;;16.00;24.40;;;;;;6154051;23;19923;-74
2022/02/21 13:41:47;;;;;;;;;;;15.90;24.90;;;;;;6155036;23;19917;-75
2022/02/21 13:44:22;;;;;;;;;;;15.90;25.10;;;;;;6158507;23;19924;-75
2022/02/21 13:46:49;;;;;;;;;;;15.90;25.00;;;;;;6160869;23;19917;-74
2022/02/21 13:49:15;;;;;;;;;;;15.90;24.50;;;;;;6155117;23;19928;-76
2022/02/21 13:51:42;;;;;;;;;;;15.90;24.20;;;;;;6156594;23;19917;-76
2022/02/21 13:54:28;;;;;;;;;;;15.80;24.30;;;;;;6157087;23;19916;-75
2022/02/21 13:57:11;;;;;;;;;;;15.70;24.70;;;;;;6156902;23;19920;-76
2022/02/21 13:59:42;;;;;;;;;;;15.70;24.90;;;;;;6159775;23;19971;-76
2022/02/21 14:02:20;;;;;;;;;;;15.70;24.50;;;;;;6158906;23;19965;-76
2022/02/21 14:05:08;;;;;;;;;;;15.60;25.60;;;;;;6171932;23;19916;-76
2022/02/21 14:07:35;;;;;;;;;;;15.60;25.30;;;;;;6161541;23;19920;-76
2022/02/21 14:10:09;;;;;;;;;;;15.60;24.80;;;;;;6171232;23;19916;-76
2022/02/21 14:12:35;;;;;;;;;;;15.60;24.40;;;;;;6165236;23;19975;-75
2022/02/21 14:15:03;;;;;;;;;;;15.60;25.10;;;;;;6161798;23;19916;-78
2022/02/21 14:17:30;;;;;;;;;;;15.60;25.60;;;;;;6140484;23;20294;-76
2022/02/21 14:19:58;;;;;;;;;;;15.60;25.20;;;;;;6190632;23;19916;-78
2022/02/21 14:22:44;;;;;;;;;;;15.70;25.20;;;;;;6164993;23;19959;-77